createdAt,value
2019-06-01T00:01:14.557Z,52.33
2019-06-01T00:03:42.756Z,52.37
2019-06-01T00:06:10.932Z,52.78
2019-06-01T00:08:40.217Z,52.78
2019-06-01T00:11:09.067Z,52.59
2019-06-01T00:13:37.281Z,52.74
2019-06-01T00:16:05.435Z,52.68
2019-06-01T00:18:33.607Z,52.76
2019-06-01T00:21:01.826Z,52.75
2019-06-01T00:23:30.001Z,52.62
2019-06-01T00:26:01.033Z,52.62
2019-06-01T00:28:29.176Z,52.94
2019-06-01T00:30:57.389Z,52.52
2019-06-01T00:33:25.575Z,53.53
2019-06-01T00:35:53.773Z,57.77
2019-06-01T00:38:22.661Z,57.77
2019-06-01T00:40:51.968Z,57.22
2019-06-01T00:43:20.325Z,73.04
2019-06-01T00:45:48.632Z,56.79
2019-06-01T00:48:16.778Z,55.42
2019-06-01T00:50:44.993Z,54.45
2019-06-01T00:53:13.171Z,53.61
2019-06-01T00:55:41.323Z,53.29
2019-06-01T00:58:09.477Z,53.14
2019-06-01T01:00:43.659Z,52.91
2019-06-01T01:03:07.642Z,52.76
2019-06-01T01:05:35.865Z,52.78
2019-06-01T01:08:05.629Z,52.77
2019-06-01T01:10:33.821Z,52.69
2019-06-01T01:13:08.496Z,52.83
2019-06-01T01:15:37.098Z,52.77
2019-06-01T01:18:06.337Z,52.64
2019-06-01T01:20:35.015Z,52.50
2019-06-01T01:23:04.423Z,52.71
2019-06-01T01:25:33.072Z,52.61
2019-06-01T01:28:01.250Z,52.59
2019-06-01T01:30:29.436Z,52.62
2019-06-01T01:32:59.002Z,52.72
2019-06-01T01:35:27.587Z,52.88
2019-06-01T01:37:59.335Z,52.80
2019-06-01T01:40:27.787Z,52.53
2019-06-01T01:42:56.493Z,52.75
2019-06-01T01:45:24.919Z,52.77
2019-06-01T01:47:53.125Z,52.80
2019-06-01T01:50:23.269Z,52.76
2019-06-01T01:52:52.662Z,52.92
2019-06-01T01:55:20.926Z,52.72
2019-06-01T01:57:49.134Z,52.47
2019-06-01T02:00:32.444Z,52.76
2019-06-01T02:03:02.181Z,53.40
2019-06-01T02:05:30.966Z,53.18
2019-06-01T02:08:00.099Z,52.26
2019-06-01T02:10:28.759Z,52.45
2019-06-01T02:12:57.542Z,51.85
2019-06-01T02:15:25.721Z,51.52
2019-06-01T02:17:53.984Z,51.63
2019-06-01T02:20:22.256Z,51.93
2019-06-01T02:22:50.425Z,52.16
2019-06-01T02:25:18.596Z,52.21
2019-06-01T02:27:46.767Z,52.19
2019-06-01T02:30:17.094Z,52.21
2019-06-01T02:32:44.284Z,52.21
2019-06-01T02:35:13.301Z,52.10
2019-06-01T02:37:41.524Z,52.40
2019-06-01T02:40:10.219Z,52.38
2019-06-01T02:42:38.411Z,52.47
2019-06-01T02:45:11.271Z,52.12
2019-06-01T02:47:39.619Z,52.38
2019-06-01T02:50:09.177Z,52.43
2019-06-01T02:52:37.307Z,52.70
2019-06-01T02:55:06.525Z,52.26
2019-06-01T02:57:34.804Z,52.38
2019-06-01T03:00:03.024Z,52.49
2019-06-01T03:02:31.619Z,52.07
2019-06-01T03:05:01.100Z,62.24
2019-06-01T03:07:32.166Z,52.40
2019-06-01T03:10:03.098Z,52.35
2019-06-01T03:12:34.291Z,54.38
2019-06-01T03:15:04.461Z,61.26
2019-06-01T03:17:33.384Z,52.83
2019-06-01T03:20:04.910Z,54.58
2019-06-01T03:22:34.441Z,54.36
2019-06-01T03:25:05.982Z,53.15
2019-06-01T03:27:35.751Z,53.15
2019-06-01T03:30:09.207Z,54.43
2019-06-01T03:32:37.653Z,57.88
2019-06-01T03:35:06.777Z,64.37
2019-06-01T03:37:35.053Z,55.53
2019-06-01T03:40:06.790Z,55.81
2019-06-01T03:42:33.505Z,54.54
2019-06-01T03:45:01.757Z,53.14
2019-06-01T03:47:29.976Z,55.33
2019-06-01T03:49:58.193Z,52.49
2019-06-01T03:52:26.356Z,53.36
2019-06-01T03:54:54.587Z,52.84
2019-06-01T03:57:22.778Z,51.68
2019-06-01T03:59:50.955Z,52.79
2019-06-01T04:02:32.442Z,52.04
2019-06-01T04:04:49.073Z,52.46
2019-06-01T04:07:17.316Z,65.10
2019-06-01T04:09:45.435Z,53.93
2019-06-01T04:12:13.585Z,64.79
2019-06-01T04:14:41.760Z,73.03
2019-06-01T04:17:10.239Z,53.69
2019-06-01T04:19:38.516Z,73.90
2019-06-01T04:22:10.070Z,72.27
2019-06-01T04:24:38.301Z,54.95
2019-06-01T04:27:06.497Z,76.08
2019-06-01T04:29:34.669Z,75.71
2019-06-01T04:32:02.840Z,77.51
2019-06-01T04:34:31.058Z,78.97
2019-06-01T04:36:59.197Z,80.19
2019-06-01T04:39:27.409Z,81.32
2019-06-01T04:41:55.579Z,81.71
2019-06-01T04:44:23.875Z,78.40
2019-06-01T04:46:52.057Z,81.53
2019-06-01T04:49:20.325Z,82.00
2019-06-01T04:51:48.531Z,75.61
2019-06-01T04:54:16.722Z,81.34
2019-06-01T04:56:44.864Z,82.00
2019-06-01T04:59:13.089Z,82.26
2019-06-01T05:01:41.272Z,82.03
2019-06-01T05:04:09.473Z,82.62
2019-06-01T05:06:37.750Z,82.40
2019-06-01T05:09:09.319Z,82.63
2019-06-01T05:11:37.481Z,82.03
2019-06-01T05:14:05.686Z,81.80
2019-06-01T05:16:33.901Z,81.26
2019-06-01T05:19:02.102Z,81.28
2019-06-01T05:21:30.326Z,80.61
2019-06-01T05:23:58.521Z,80.48
2019-06-01T05:26:26.724Z,75.88
2019-06-01T05:28:54.952Z,79.82
2019-06-01T05:31:25.215Z,79.48
2019-06-01T05:33:52.999Z,79.69
2019-06-01T05:36:21.138Z,78.86
2019-06-01T05:38:49.341Z,78.87
2019-06-01T05:41:19.791Z,79.08
2019-06-01T05:43:47.528Z,78.60
2019-06-01T05:46:16.102Z,79.37
2019-06-01T05:48:44.520Z,78.60
2019-06-01T05:51:15.581Z,77.23
2019-06-01T05:53:42.724Z,77.84
2019-06-01T05:56:11.042Z,77.83
2019-06-01T05:58:39.234Z,76.05
2019-06-01T06:01:07.784Z,75.06
2019-06-01T06:03:40.422Z,74.49
2019-06-01T06:06:06.062Z,73.28
2019-06-01T06:08:34.260Z,72.83
2019-06-01T06:11:02.470Z,73.31
2019-06-01T06:13:30.622Z,73.00
2019-06-01T06:15:58.873Z,72.39
2019-06-01T06:18:27.120Z,71.62
2019-06-01T06:20:55.388Z,71.41
2019-06-01T06:23:23.569Z,71.06
2019-06-01T06:25:51.756Z,71.06
2019-06-01T06:28:20.807Z,69.68
2019-06-01T06:30:49.193Z,69.33
2019-06-01T06:33:17.471Z,66.45
2019-06-01T06:35:45.728Z,66.74
2019-06-01T06:38:13.944Z,66.46
2019-06-01T06:40:42.204Z,52.97
2019-06-01T06:43:19.109Z,62.90
2019-06-01T06:45:39.537Z,64.12
2019-06-01T06:48:07.738Z,64.02
2019-06-01T06:50:35.922Z,63.59
2019-06-01T06:53:04.144Z,61.98
2019-06-01T06:55:32.254Z,54.34
2019-06-01T06:58:00.505Z,63.53
2019-06-01T07:00:28.746Z,61.00
2019-06-01T07:02:56.913Z,62.83
2019-06-01T07:05:25.491Z,58.40
2019-06-01T07:07:53.903Z,59.77
2019-06-01T07:10:22.223Z,57.93
2019-06-01T07:12:50.392Z,55.94
2019-06-01T07:15:19.199Z,54.75
2019-06-01T07:17:47.466Z,53.93
2019-06-01T07:20:16.066Z,55.93
2019-06-01T07:22:44.217Z,53.25
2019-06-01T07:25:12.645Z,54.21
2019-06-01T07:27:40.849Z,51.86
2019-06-01T07:30:09.166Z,50.84
2019-06-01T07:32:37.346Z,53.61
2019-06-01T07:35:06.003Z,51.37
2019-06-01T07:37:34.183Z,53.31
2019-06-01T07:40:02.411Z,50.53
2019-06-01T07:42:30.804Z,51.27
2019-06-01T07:44:59.004Z,52.09
2019-06-01T07:47:27.485Z,50.36
2019-06-01T07:49:55.652Z,50.70
2019-06-01T07:52:24.200Z,50.00
2019-06-01T07:54:52.507Z,50.10
2019-06-01T07:57:21.630Z,51.14
2019-06-01T07:59:49.911Z,49.31
2019-06-01T08:02:18.370Z,48.89
2019-06-01T08:04:53.159Z,49.24
2019-06-01T08:07:16.760Z,49.93
2019-06-01T08:09:44.944Z,48.64
2019-06-01T08:12:13.257Z,46.13
2019-06-01T08:14:41.536Z,48.54
2019-06-01T08:17:09.856Z,48.86
2019-06-01T08:19:38.042Z,49.65
2019-06-01T08:22:06.284Z,49.37
2019-06-01T08:24:34.480Z,46.89
2019-06-01T08:27:02.717Z,48.02
2019-06-01T08:29:31.017Z,45.83
2019-06-01T08:31:59.526Z,49.38
2019-06-01T08:34:28.893Z,48.97
2019-06-01T08:36:57.275Z,48.97
2019-06-01T08:39:25.559Z,45.63
2019-06-01T08:41:53.748Z,49.15
2019-06-01T08:44:21.900Z,45.84
2019-06-01T08:46:50.074Z,49.80
2019-06-01T08:49:18.254Z,44.06
2019-06-01T08:51:46.480Z,46.22
2019-06-01T08:54:14.705Z,43.67
2019-06-01T08:56:42.876Z,47.71
2019-06-01T08:59:11.051Z,48.33
2019-06-01T09:01:39.278Z,48.17
2019-06-01T09:04:07.460Z,52.11
2019-06-01T09:06:35.758Z,51.76
2019-06-01T09:09:05.000Z,46.63
2019-06-01T09:11:33.307Z,45.17
2019-06-01T09:14:01.653Z,45.99
2019-06-01T09:16:29.819Z,38.21
2019-06-01T09:18:58.025Z,40.23
2019-06-01T09:21:27.415Z,41.00
2019-06-01T09:23:55.838Z,44.36
2019-06-01T09:26:23.983Z,44.31
2019-06-01T09:28:52.208Z,40.31
2019-06-01T09:31:20.597Z,43.57
2019-06-01T09:33:48.952Z,44.93
2019-06-01T09:36:17.102Z,44.12
2019-06-01T09:38:45.274Z,46.04
2019-06-01T09:41:13.476Z,46.78
2019-06-01T09:43:41.843Z,37.25
2019-06-01T09:46:10.081Z,38.08
2019-06-01T09:48:38.294Z,36.38
2019-06-01T09:51:06.556Z,41.99
2019-06-01T09:53:35.976Z,48.63
2019-06-01T09:56:04.304Z,37.74
2019-06-01T09:58:32.577Z,46.63
2019-06-01T10:01:00.789Z,44.18
2019-06-01T10:03:30.214Z,42.36
2019-06-01T10:06:02.172Z,39.74
2019-06-01T10:08:29.322Z,40.95
2019-06-01T10:10:57.565Z,37.05
2019-06-01T10:13:25.763Z,32.44
2019-06-01T10:15:53.989Z,40.56
2019-06-01T10:18:22.303Z,42.36
2019-06-01T10:20:50.528Z,42.80
2019-06-01T10:23:18.728Z,38.68
2019-06-01T10:25:46.957Z,32.44
2019-06-01T10:28:15.108Z,35.23
2019-06-01T10:30:43.306Z,34.17
2019-06-01T10:33:11.533Z,35.35
2019-06-01T10:35:39.659Z,37.34
2019-06-01T10:38:07.909Z,43.58
2019-06-01T10:40:37.486Z,32.96
2019-06-01T10:43:06.004Z,40.63
2019-06-01T10:45:35.656Z,45.42
2019-06-01T10:48:04.047Z,37.38
2019-06-01T10:50:34.424Z,38.01
2019-06-01T10:53:02.242Z,29.13
2019-06-01T10:55:30.511Z,31.92
2019-06-01T10:57:58.849Z,33.15
2019-06-01T11:00:39.624Z,38.12
2019-06-01T11:02:57.118Z,27.58
2019-06-01T11:05:25.334Z,34.82
2019-06-01T11:07:53.591Z,40.62
2019-06-01T11:10:22.448Z,32.45
2019-06-01T11:12:50.699Z,43.79
2019-06-01T11:15:19.823Z,29.44
2019-06-01T11:17:47.995Z,38.42
2019-06-01T11:20:16.485Z,40.38
2019-06-01T11:22:44.728Z,37.35
2019-06-01T11:25:12.987Z,34.91
2019-06-01T11:27:41.875Z,29.82
2019-06-01T11:30:10.437Z,38.16
2019-06-01T11:32:40.993Z,34.46
2019-06-01T11:35:09.630Z,40.14
2019-06-01T11:37:38.482Z,32.67
2019-06-01T11:40:07.174Z,33.77
2019-06-01T11:42:36.903Z,33.57
2019-06-01T11:45:05.849Z,29.76
2019-06-01T11:47:34.728Z,30.93
2019-06-01T11:50:02.996Z,29.32
2019-06-01T11:52:31.196Z,35.10
2019-06-01T11:54:59.375Z,32.20
2019-06-01T11:57:27.647Z,33.51
2019-06-01T11:59:55.825Z,32.54
2019-06-01T12:02:24.507Z,28.73
2019-06-01T12:04:52.657Z,30.36
2019-06-01T12:07:20.919Z,32.59
2019-06-01T12:09:49.087Z,36.44
2019-06-01T12:12:17.255Z,30.30
2019-06-01T12:14:46.791Z,26.66
2019-06-01T12:17:15.040Z,35.17
2019-06-01T12:19:44.671Z,36.73
2019-06-01T12:22:13.081Z,33.72
2019-06-01T12:24:41.305Z,33.79
2019-06-01T12:27:09.529Z,30.97
2019-06-01T12:29:37.705Z,29.55
2019-06-01T12:32:05.929Z,29.13
2019-06-01T12:34:34.162Z,25.70
2019-06-01T12:37:02.350Z,32.65
2019-06-01T12:39:30.565Z,37.12
2019-06-01T12:41:58.706Z,30.26
2019-06-01T12:44:26.880Z,32.99
2019-06-01T12:46:55.063Z,32.17
2019-06-01T12:49:23.299Z,27.11
2019-06-01T12:51:52.876Z,25.72
2019-06-01T12:54:21.232Z,27.89
2019-06-01T12:56:49.826Z,27.83
2019-06-01T12:59:18.100Z,31.21
2019-06-01T13:01:47.262Z,30.59
2019-06-01T13:04:14.695Z,36.08
2019-06-01T13:06:42.834Z,29.77
2019-06-01T13:09:10.986Z,29.97
2019-06-01T13:11:39.118Z,34.03
2019-06-01T13:14:07.251Z,32.40
2019-06-01T13:16:35.402Z,30.70
2019-06-01T13:19:03.589Z,34.42
2019-06-01T13:21:31.752Z,27.48
2019-06-01T13:23:59.930Z,35.81
2019-06-01T13:26:28.146Z,31.56
2019-06-01T13:28:56.334Z,30.11
2019-06-01T13:31:24.508Z,29.68
2019-06-01T13:33:55.512Z,29.17
2019-06-01T13:36:23.717Z,29.59
2019-06-01T13:38:52.967Z,26.25
2019-06-01T13:41:20.333Z,30.54
2019-06-01T13:43:49.502Z,33.42
2019-06-01T13:46:16.861Z,28.05
2019-06-01T13:48:45.525Z,26.24
2019-06-01T13:51:13.774Z,29.42
2019-06-01T13:53:41.996Z,35.21
2019-06-01T13:56:10.134Z,28.98
2019-06-01T13:58:38.336Z,30.10
2019-06-01T14:01:06.459Z,31.18
2019-06-01T14:03:34.634Z,28.29
2019-06-01T14:06:02.838Z,30.74
2019-06-01T14:08:30.974Z,28.42
2019-06-01T14:10:59.186Z,30.00
2019-06-01T14:13:27.326Z,26.22
2019-06-01T14:15:55.688Z,24.80
2019-06-01T14:18:23.915Z,28.47
2019-06-01T14:20:52.136Z,25.41
2019-06-01T14:23:20.373Z,27.32
2019-06-01T14:25:48.560Z,28.16
2019-06-01T14:28:16.743Z,29.37
2019-06-01T14:30:46.079Z,33.80
2019-06-01T14:33:13.408Z,27.02
2019-06-01T14:35:41.567Z,29.71
2019-06-01T14:38:09.835Z,27.80
2019-06-01T14:40:41.248Z,26.67
2019-06-01T14:43:07.864Z,30.50
2019-06-01T14:45:36.094Z,31.75
2019-06-01T14:48:04.440Z,24.06
2019-06-01T14:50:32.854Z,28.02
2019-06-01T14:53:00.971Z,28.37
2019-06-01T14:55:29.134Z,27.94
2019-06-01T14:57:58.429Z,26.76
2019-06-01T15:00:25.731Z,30.22
2019-06-01T15:02:54.418Z,31.76
2019-06-01T15:05:22.621Z,31.53
2019-06-01T15:07:52.251Z,28.85
2019-06-01T15:10:20.605Z,27.98
2019-06-01T15:12:54.494Z,29.68
2019-06-01T15:15:19.311Z,30.14
2019-06-01T15:17:47.528Z,29.60
2019-06-01T15:20:16.129Z,37.31
2019-06-01T15:22:44.281Z,32.30
2019-06-01T15:25:12.938Z,30.62
2019-06-01T15:27:41.105Z,28.14
2019-06-01T15:30:09.987Z,30.50
2019-06-01T15:32:38.245Z,30.47
2019-06-01T15:35:08.069Z,26.72
2019-06-01T15:37:36.290Z,30.32
2019-06-01T15:40:05.001Z,27.46
2019-06-01T15:42:33.234Z,28.00
2019-06-01T15:45:01.568Z,30.80
2019-06-01T15:47:29.739Z,27.85
2019-06-01T15:49:58.178Z,29.56
2019-06-01T15:52:26.314Z,28.26
2019-06-01T15:54:54.524Z,32.46
2019-06-01T15:57:22.696Z,29.78
2019-06-01T15:59:50.897Z,27.60
2019-06-01T16:02:19.047Z,27.13
2019-06-01T16:04:47.278Z,25.86
2019-06-01T16:07:15.491Z,30.26
2019-06-01T16:09:43.703Z,28.23
2019-06-01T16:12:11.875Z,29.03
2019-06-01T16:14:40.314Z,27.21
2019-06-01T16:17:08.529Z,31.86
2019-06-01T16:19:36.690Z,32.33
2019-06-01T16:22:05.002Z,32.27
2019-06-01T16:24:33.153Z,35.60
2019-06-01T16:27:02.552Z,30.83
2019-06-01T16:29:30.843Z,29.55
2019-06-01T16:31:59.032Z,35.18
2019-06-01T16:34:27.166Z,29.16
2019-06-01T16:36:55.385Z,35.97
2019-06-01T16:39:23.485Z,30.65
2019-06-01T16:41:51.710Z,32.16
2019-06-01T16:44:20.120Z,33.28
2019-06-01T16:46:48.141Z,28.57
2019-06-01T16:49:16.301Z,29.88
2019-06-01T16:51:56.573Z,32.41
2019-06-01T16:54:25.290Z,34.62
2019-06-01T16:56:53.725Z,34.38
2019-06-01T16:59:22.043Z,32.30
2019-06-01T17:01:50.260Z,32.62
2019-06-01T17:04:18.447Z,29.01
2019-06-01T17:06:47.216Z,31.68
2019-06-01T17:09:15.868Z,35.27
2019-06-01T17:11:44.203Z,30.32
2019-06-01T17:14:12.377Z,32.32
2019-06-01T17:16:40.560Z,32.65
2019-06-01T17:19:08.703Z,33.71
2019-06-01T17:21:37.046Z,30.53
2019-06-01T17:24:06.516Z,29.61
2019-06-01T17:26:33.780Z,35.42
2019-06-01T17:29:02.177Z,33.36
2019-06-01T17:31:30.406Z,31.93
2019-06-01T17:33:58.606Z,34.01
2019-06-01T17:36:26.788Z,31.01
2019-06-01T17:38:54.928Z,31.02
2019-06-01T17:41:23.078Z,35.06
2019-06-01T17:43:51.224Z,31.60
2019-06-01T17:46:19.402Z,32.05
2019-06-01T17:48:47.905Z,32.16
2019-06-01T17:51:16.181Z,34.52
2019-06-01T17:53:44.376Z,35.05
2019-06-01T17:56:12.542Z,32.53
2019-06-01T17:58:40.682Z,34.04
2019-06-01T18:01:09.947Z,33.35
2019-06-01T18:03:37.272Z,31.59
2019-06-01T18:06:05.815Z,34.03
2019-06-01T18:08:34.244Z,31.78
2019-06-01T18:11:02.440Z,38.66
2019-06-01T18:13:30.612Z,42.13
2019-06-01T18:15:58.744Z,41.37
2019-06-01T18:18:26.913Z,42.82
2019-06-01T18:20:55.101Z,43.91
2019-06-01T18:23:23.337Z,43.61
2019-06-01T18:25:51.689Z,45.21
2019-06-01T18:28:20.251Z,43.96
2019-06-01T18:30:49.830Z,45.91
2019-06-01T18:33:17.937Z,41.84
2019-06-01T18:35:46.089Z,44.08
2019-06-01T18:38:14.908Z,46.69
2019-06-01T18:40:43.189Z,49.08
2019-06-01T18:43:14.814Z,51.06
2019-06-01T18:45:43.066Z,52.18
2019-06-01T18:48:12.368Z,53.46
2019-06-01T18:50:40.941Z,52.81
2019-06-01T18:53:10.299Z,51.97
2019-06-01T18:55:38.435Z,53.84
2019-06-01T18:58:06.689Z,49.17
2019-06-01T19:00:39.304Z,46.00
2019-06-01T19:03:07.092Z,41.65
2019-06-01T19:05:35.477Z,47.41
2019-06-01T19:08:05.628Z,45.00
2019-06-01T19:10:33.513Z,41.95
2019-06-01T19:13:01.644Z,40.22
2019-06-01T19:15:29.757Z,39.18
2019-06-01T19:17:57.883Z,38.66
2019-06-01T19:20:26.063Z,38.52
2019-06-01T19:22:54.300Z,38.45
2019-06-01T19:25:22.625Z,38.59
2019-06-01T19:27:50.851Z,38.85
2019-06-01T19:30:35.250Z,38.78
2019-06-01T19:33:03.384Z,38.85
2019-06-01T19:35:31.821Z,38.95
2019-06-01T19:38:01.487Z,38.94
2019-06-01T19:40:32.586Z,39.26
2019-06-01T19:43:00.766Z,39.59
2019-06-01T19:45:29.703Z,40.83
2019-06-01T19:47:57.965Z,40.26
2019-06-01T19:50:26.188Z,41.11
2019-06-01T19:52:54.331Z,41.85
2019-06-01T19:55:22.587Z,41.71
2019-06-01T19:57:50.795Z,42.73
2019-06-01T20:00:18.970Z,43.20
2019-06-01T20:02:47.104Z,42.77
2019-06-01T20:05:16.614Z,43.38
2019-06-01T20:07:44.816Z,43.07
2019-06-01T20:10:14.322Z,43.50
2019-06-01T20:12:42.595Z,43.76
2019-06-01T20:15:11.307Z,43.93
2019-06-01T20:17:40.073Z,43.90
2019-06-01T20:20:08.674Z,45.22
2019-06-01T20:22:36.914Z,43.85
2019-06-01T20:25:06.015Z,43.92
2019-06-01T20:27:34.262Z,44.42
2019-06-01T20:30:02.421Z,44.42
2019-06-01T20:32:30.676Z,44.43
2019-06-01T20:34:59.040Z,44.47
2019-06-01T20:37:27.214Z,44.66
2019-06-01T20:39:55.697Z,44.57
2019-06-01T20:42:32.123Z,44.65
2019-06-01T20:44:54.579Z,45.11
2019-06-01T20:47:22.979Z,45.30
2019-06-01T20:49:51.087Z,45.66
2019-06-01T20:52:19.322Z,45.38
2019-06-01T20:54:47.514Z,44.85
2019-06-01T20:57:15.899Z,45.52
2019-06-01T20:59:44.062Z,45.29
2019-06-01T21:02:13.646Z,45.51
2019-06-01T21:04:41.958Z,45.78
2019-06-01T21:07:10.233Z,45.56
2019-06-01T21:09:38.375Z,45.81
2019-06-01T21:12:06.497Z,45.84
2019-06-01T21:14:34.760Z,46.00
2019-06-01T21:17:02.946Z,46.10
2019-06-01T21:19:31.047Z,46.35
2019-06-01T21:21:59.232Z,46.25
2019-06-01T21:24:27.425Z,46.52
2019-06-01T21:26:55.527Z,46.55
2019-06-01T21:29:25.186Z,46.60
2019-06-01T21:31:53.320Z,46.81
2019-06-01T21:34:22.596Z,46.96
2019-06-01T21:36:52.518Z,47.09
2019-06-01T21:39:21.668Z,47.57
2019-06-01T21:41:50.212Z,52.34
2019-06-01T21:44:19.397Z,48.53
2019-06-01T21:46:47.639Z,52.07
2019-06-01T21:49:15.809Z,48.51
2019-06-01T21:51:44.070Z,47.99
2019-06-01T21:54:12.271Z,47.83
2019-06-01T21:56:40.571Z,47.65
2019-06-01T21:59:08.703Z,47.73
2019-06-01T22:01:37.042Z,47.87
2019-06-01T22:04:05.172Z,48.05
2019-06-01T22:06:33.353Z,48.19
2019-06-01T22:09:01.695Z,48.27
2019-06-01T22:11:29.842Z,48.44
2019-06-01T22:13:58.046Z,48.12
2019-06-01T22:16:26.205Z,48.31
2019-06-01T22:18:54.855Z,48.37
2019-06-01T22:21:23.796Z,48.51
2019-06-01T22:23:52.102Z,48.80
2019-06-01T22:26:20.504Z,48.56
2019-06-01T22:28:48.731Z,48.63
2019-06-01T22:31:18.251Z,48.55
2019-06-01T22:33:46.788Z,48.53
2019-06-01T22:36:15.050Z,48.58
2019-06-01T22:38:43.158Z,48.70
2019-06-01T22:41:11.374Z,48.73
2019-06-01T22:43:46.134Z,48.70
2019-06-01T22:46:09.554Z,48.65
2019-06-01T22:48:37.723Z,48.95
2019-06-01T22:51:05.981Z,49.01
2019-06-01T22:53:34.093Z,49.05
2019-06-01T22:56:02.372Z,49.52
2019-06-01T22:58:31.615Z,50.18
2019-06-01T23:01:00.243Z,49.29
2019-06-01T23:03:28.386Z,49.12
2019-06-01T23:05:56.643Z,49.21
2019-06-01T23:08:25.678Z,49.21
2019-06-01T23:10:53.879Z,50.50
2019-06-01T23:13:22.201Z,49.08
2019-06-01T23:15:50.409Z,49.24
2019-06-01T23:18:18.621Z,49.23
2019-06-01T23:20:46.823Z,49.24
2019-06-01T23:23:14.936Z,49.25
2019-06-01T23:25:43.239Z,49.19
2019-06-01T23:28:11.534Z,49.29
2019-06-01T23:30:39.807Z,49.47
2019-06-01T23:33:08.238Z,49.47
2019-06-01T23:35:36.638Z,49.49
2019-06-01T23:38:05.913Z,49.35
2019-06-01T23:40:34.075Z,49.21
2019-06-01T23:43:02.263Z,49.08
2019-06-01T23:45:30.924Z,50.15
2019-06-01T23:47:59.126Z,49.45
2019-06-01T23:50:27.265Z,49.15
2019-06-01T23:52:55.499Z,49.44
2019-06-01T23:55:23.643Z,49.21
2019-06-01T23:57:52.029Z,49.26
